Terminal Aerodrome Forecast
Issued by NWS

Home | Current Version | Previous Version | Text Only | Print | Product List | Glossary On
Versions: 1 2 3 4 5 6 7 8 9 10 11 12 13 14
244
FTUS46 KPDT 301740
TAFPSC
TAF
KPSC 301740Z 3018/0118 24017G25KT P6SM FEW050 SCT250
     FM010300 28012KT P6SM SCT120
     FM010500 31010KT P6SM FEW060
     FM011400 27005KT P6SM BKN130 BKN150=

USA.gov is the U.S. government's official web portal to all federal, state and local government web resources and services.